Time;durP1;ratioP1;P1;durP2;ratioP2;P2;SDS_P1;SDS_P2;PMS_P1;PMS_P2;Temp;Humidity;BMP_temperature;BMP_pressure;BME280_temperature;BME280_humidity;BME280_pressure;Samples;Min_cycle;Max_cycle;Signal;HPM_P1;HPM_P2
2022/02/12 00:02:15;;;;;;;8.73;6.47;;;;;;;;;;10543209;28;19910;-84
2022/02/12 00:07:16;;;;;;;13.10;8.70;;;;;;;;;;10545423;28;20105;-84
2022/02/12 00:12:17;;;;;;;;;;;;;;;;;;10544463;28;20185;-84
2022/02/12 00:17:18;;;;;;;12.55;7.90;;;;;;;;;;10543317;28;19910;-84
2022/02/12 00:22:19;;;;;;;9.38;7.05;;;;;;;;;;10542828;28;20047;-85
2022/02/12 00:27:20;;;;;;;7.85;6.22;;;;;;;;;;10542169;28;20071;-85
2022/02/12 00:32:21;;;;;;;;;;;;;;;;;;10542697;28;20398;-84
2022/02/12 00:37:24;;;;;;;10.18;7.28;;;;;;;;;;10542827;28;19912;-83
2022/02/12 00:42:25;;;;;;;10.07;7.22;;;;;;;;;;10543790;28;20032;-85
2022/02/12 00:47:28;;;;;;;10.27;6.72;;;;;;;;;;10560705;28;20111;-84
2022/02/12 00:52:29;;;;;;;9.27;6.57;;;;;;;;;;10542596;28;20085;-83
2022/02/12 00:57:31;;;;;;;;;;;;;;;;;;10541727;28;20040;-83
2022/02/12 01:02:34;;;;;;;9.20;6.45;;;;;;;;;;10558525;28;20293;-84
2022/02/12 01:07:34;;;;;;;;;;;;;;;;;;10542629;28;20087;-84
2022/02/12 01:12:36;;;;;;;8.40;5.85;;;;;;;;;;10542359;28;19912;-84
2022/02/12 01:17:37;;;;;;;8.77;6.30;;;;;;;;;;10541841;28;20036;-84
2022/02/12 01:22:39;;;;;;;8.38;6.57;;;;;;;;;;10542114;28;20047;-84
2022/02/12 01:27:40;;;;;;;9.43;7.07;;;;;;;;;;10542001;28;20040;-84
2022/02/12 01:32:42;;;;;;;9.57;6.88;;;;;;;;;;10541254;28;20036;-84
2022/02/12 01:37:48;;;;;;;;;;;;;;;;;;10582769;22;20057;-85
2022/02/12 01:42:49;;;;;;;11.63;7.28;;;;;;;;;;10478211;28;20366;-85
2022/02/12 01:48:05;;;;;;;11.02;7.38;;;;;;;;;;10467461;28;20041;-85
2022/02/12 01:53:06;;;;;;;10.05;6.78;;;;;;;;;;10457643;28;20140;-85
2022/02/12 01:58:11;;;;;;;8.90;6.03;;;;;;;;;;10457388;28;20475;-85
2022/02/12 02:03:35;;;;;;;11.10;6.90;;;;;;;;;;10479495;28;20088;-85
2022/02/12 02:08:51;;;;;;;8.23;6.17;;;;;;;;;;10476834;28;20037;-85
2022/02/12 02:13:53;;;;;;;8.43;5.95;;;;;;;;;;10459240;28;20047;-84
2022/02/12 02:18:54;;;;;;;7.53;5.70;;;;;;;;;;10451952;28;20040;-85
2022/02/12 02:24:01;;;;;;;8.93;6.45;;;;;;;;;;10451251;28;20029;-85
2022/02/12 02:29:04;;;;;;;8.50;6.28;;;;;;;;;;10455241;28;20130;-85
2022/02/12 02:34:12;;;;;;;7.45;5.97;;;;;;;;;;10454568;28;20123;-85
2022/02/12 02:39:13;;;;;;;8.13;5.78;;;;;;;;;;10452182;28;20048;-85
2022/02/12 02:44:21;;;;;;;;;;;;;;;;;;10451705;28;20044;-85
2022/02/12 02:49:24;;;;;;;9.48;6.50;;;;;;;;;;10452619;28;19980;-85
2022/02/12 02:59:50;;;;;;;9.13;6.15;;;;;;;;;;10476518;28;20517;-85
2022/02/12 03:04:51;;;;;;;8.05;5.75;;;;;;;;;;10458210;28;20040;-85
2022/02/12 03:09:58;;;;;;;8.90;5.70;;;;;;;;;;10457822;28;20029;-85
2022/02/12 03:15:08;;;;;;;9.43;5.95;;;;;;;;;;10457321;28;20040;-85
2022/02/12 03:20:10;;;;;;;8.82;5.70;;;;;;;;;;10457152;28;20041;-85
2022/02/12 03:25:16;;;;;;;8.40;5.68;;;;;;;;;;10462831;28;20072;-85
2022/02/12 03:30:19;;;;;;;7.55;5.75;;;;;;;;;;10460170;28;20033;-85
2022/02/12 03:35:26;;;;;;;9.70;5.80;;;;;;;;;;10453666;28;20044;-85
2022/02/12 03:40:27;;;;;;;8.65;5.70;;;;;;;;;;10452029;28;20091;-85
2022/02/12 03:45:29;;;;;;;;;;;;;;;;;;10453742;28;20036;-86
2022/02/12 03:50:31;;;;;;;7.47;4.95;;;;;;;;;;10454953;28;19936;-85
2022/02/12 03:55:36;;;;;;;8.43;5.28;;;;;;;;;;10462750;28;20041;-86
2022/02/12 04:00:40;;;;;;;7.78;5.60;;;;;;;;;;10453405;28;20037;-86
2022/02/12 04:05:46;;;;;;;8.13;5.53;;;;;;;;;;10454742;28;20109;-85
2022/02/12 04:11:07;;;;;;;8.57;4.80;;;;;;;;;;10472154;28;20116;-85
2022/02/12 04:16:09;;;;;;;;;;;;;;;;;;10509881;28;20045;-86
2022/02/12 04:21:19;;;;;;;6.65;4.55;;;;;;;;;;10482735;28;19908;-84
2022/02/12 04:26:27;;;;;;;6.87;4.67;;;;;;;;;;10467364;28;20187;-84
2022/02/12 04:31:35;;;;;;;7.25;4.50;;;;;;;;;;10482315;28;20029;-84
2022/02/12 04:36:45;;;;;;;7.60;5.10;;;;;;;;;;10462934;28;20491;-83
2022/02/12 04:41:47;;;;;;;7.63;4.60;;;;;;;;;;10460950;28;20077;-84
2022/02/12 04:46:48;;;;;;;6.43;4.53;;;;;;;;;;10459145;28;20040;-84
2022/02/12 04:51:56;;;;;;;6.07;4.32;;;;;;;;;;10461093;28;20035;-84
2022/02/12 04:57:16;;;;;;;9.18;4.60;;;;;;;;;;10453572;28;20041;-84
2022/02/12 05:02:18;;;;;;;8.25;4.35;;;;;;;;;;10454301;28;20044;-84
2022/02/12 05:07:49;;;;;;;5.05;3.90;;;;;;;;;;10469887;28;20029;-84
2022/02/12 05:12:56;;;;;;;10.55;4.53;;;;;;;;;;10452773;28;20145;-84
2022/02/12 05:17:59;;;;;;;5.57;4.22;;;;;;;;;;10460119;28;20131;-84
2022/02/12 05:23:07;;;;;;;5.88;3.80;;;;;;;;;;10452043;28;20033;-84
2022/02/12 05:28:18;;;;;;;5.78;3.83;;;;;;;;;;10450815;28;20475;-84
2022/02/12 05:33:25;;;;;;;5.80;3.92;;;;;;;;;;10451312;28;20343;-85
2022/02/12 05:38:26;;;;;;;8.23;3.88;;;;;;;;;;10449872;28;20123;-85
2022/02/12 05:43:53;;;;;;;5.97;3.90;;;;;;;;;;10468842;28;20052;-85
2022/02/12 05:49:01;;;;;;;6.75;3.90;;;;;;;;;;10452223;28;20045;-85
2022/02/12 05:54:09;;;;;;;6.15;3.50;;;;;;;;;;10455850;28;20048;-85
2022/02/12 05:59:20;;;;;;;4.93;3.30;;;;;;;;;;10453892;28;20036;-85
2022/02/12 06:04:21;;;;;;;6.30;3.40;;;;;;;;;;10469886;28;20063;-85
2022/02/12 06:09:27;;;;;;;;;;;;;;;;;;10461292;28;20040;-85
2022/02/12 06:14:30;;;;;;;5.57;3.40;;;;;;;;;;10480146;28;19904;-85
2022/02/12 06:19:31;;;;;;;7.90;3.50;;;;;;;;;;10456831;28;20040;-85
2022/02/12 06:24:32;;;;;;;6.25;3.00;;;;;;;;;;10448788;28;20449;-85
2022/02/12 06:29:33;;;;;;;;;;;;;;;;;;10449064;28;20057;-85
2022/02/12 06:34:34;;;;;;;5.45;3.20;;;;;;;;;;10447295;28;19905;-85
2022/02/12 06:39:35;;;;;;;7.40;3.55;;;;;;;;;;10450325;28;20116;-85
2022/02/12 06:44:37;;;;;;;;;;;;;;;;;;10450782;28;20079;-85
2022/02/12 06:49:39;;;;;;;7.40;3.33;;;;;;;;;;10408228;28;19929;-84
2022/02/12 06:54:41;;;;;;;;;;;;;;;;;;10407100;28;20041;-85
2022/02/12 06:59:43;;;;;;;8.82;2.83;;;;;;;;;;10408956;28;19962;-84
2022/02/12 07:04:44;;;;;;;4.65;2.92;;;;;;;;;;10408495;28;20033;-85
2022/02/12 07:09:45;;;;;;;4.90;3.00;;;;;;;;;;10434137;28;20116;-84
2022/02/12 07:14:46;;;;;;;;;;;;;;;;;;10427401;28;20045;-85
2022/02/12 07:19:47;;;;;;;7.35;3.08;;;;;;;;;;10429910;28;19948;-85
2022/02/12 07:24:48;;;;;;;;;;;;;;;;;;10424956;28;20037;-85
2022/02/12 07:29:49;;;;;;;8.18;3.70;;;;;;;;;;10417109;28;19980;-84
2022/02/12 07:34:50;;;;;;;;;;;;;;;;;;10429968;28;20403;-85
2022/02/12 07:39:51;;;;;;;8.23;3.20;;;;;;;;;;10412479;22;19921;-86
2022/02/12 07:44:52;;;;;;;;;;;;;;;;;;10423086;28;20049;-86
2022/02/12 07:49:53;;;;;;;5.82;2.97;;;;;;;;;;10416853;28;19905;-87
2022/02/12 07:54:53;;;;;;;;;;;;;;;;;;10436655;28;20040;-87
2022/02/12 07:59:58;;;;;;;6.97;3.40;;;;;;;;;;10410890;28;19914;-86
2022/02/12 08:05:30;;;;;;;9.63;4.40;;;;;;;;;;10428063;28;20037;-85
2022/02/12 08:15:56;;;;;;;12.00;5.07;;;;;;;;;;10395383;28;20037;-83
2022/02/12 08:20:57;;;;;;;;;;;;;;;;;;10415840;28;20061;-81
2022/02/12 08:25:58;;;;;;;7.97;3.63;;;;;;;;;;10416828;28;19917;-82
2022/02/12 08:30:59;;;;;;;8.35;3.33;;;;;;;;;;10412350;28;20030;-82
2022/02/12 08:36:00;;;;;;;;;;;;;;;;;;10438742;28;20038;-82
2022/02/12 08:41:01;;;;;;;7.57;3.58;;;;;;;;;;10415891;28;19913;-81
2022/02/12 08:46:02;;;;;;;;;;;;;;;;;;10405970;28;20073;-81
2022/02/12 08:51:07;;;;;;;6.80;3.20;;;;;;;;;;10415091;28;19927;-81
2022/02/12 08:56:08;;;;;;;6.28;3.10;;;;;;;;;;10452028;28;20109;-81
2022/02/12 09:01:09;;;;;;;;;;;;;;;;;;10451520;28;20014;-81
2022/02/12 09:06:10;;;;;;;6.85;3.72;;;;;;;;;;10469458;28;19936;-81
2022/02/12 09:11:10;;;;;;;;;;;;;;;;;;10468758;28;20018;-81
2022/02/12 09:16:11;;;;;;;6.60;3.47;;;;;;;;;;10418944;28;19999;-82
2022/02/12 09:21:12;;;;;;;;;;;;;;;;;;10416358;28;20096;-81
2022/02/12 09:26:13;;;;;;;6.70;3.22;;;;;;;;;;10412814;28;19913;-81
2022/02/12 09:31:15;;;;;;;5.05;3.03;;;;;;;;;;10411825;28;20034;-81
2022/02/12 09:36:16;;;;;;;6.45;3.25;;;;;;;;;;10430811;28;20037;-81
2022/02/12 09:41:23;;;;;;;;;;;;;;;;;;10415934;28;20076;-81
2022/02/12 09:46:43;;;;;;;9.35;4.43;;;;;;;;;;10412420;28;19915;-81
2022/02/12 09:51:44;;;;;;;22.05;10.70;;;;;;;;;;10407228;28;20029;-80
2022/02/12 09:56:45;;;;;;;5.30;2.85;;;;;;;;;;10409913;28;20033;-81
2022/02/12 10:01:46;;;;;;;;;;;;;;;;;;10412673;28;20037;-82
2022/02/12 10:06:48;;;;;;;4.78;2.55;;;;;;;;;;10420135;28;19952;-82
2022/02/12 10:11:50;;;;;;;6.20;2.70;;;;;;;;;;10410230;28;20052;-82
2022/02/12 10:16:51;;;;;;;12.88;3.20;;;;;;;;;;10428880;28;20500;-82
2022/02/12 10:22:23;;;;;;;5.60;2.70;;;;;;;;;;10411694;28;20048;-82
2022/02/12 10:27:25;;;;;;;9.00;2.90;;;;;;;;;;10393502;28;20041;-82
2022/02/12 10:32:27;;;;;;;6.25;2.75;;;;;;;;;;10435131;28;20030;-81
2022/02/12 10:37:28;;;;;;;7.90;2.80;;;;;;;;;;10411700;28;20103;-82
2022/02/12 10:42:29;;;;;;;;;;;;;;;;;;10410270;28;20041;-82
2022/02/12 10:47:30;;;;;;;5.28;2.40;;;;;;;;;;10410220;28;19909;-83
2022/02/12 10:52:31;;;;;;;;;;;;;;;;;;10413678;28;20033;-81
2022/02/12 10:57:38;;;;;;;5.63;2.75;;;;;;;;;;10435634;28;20337;-83
2022/02/12 11:02:39;;;;;;;5.28;2.10;;;;;;;;;;10430658;28;20036;-81
2022/02/12 11:07:41;;;;;;;5.40;2.22;;;;;;;;;;10414821;28;20037;-83
2022/02/12 11:12:41;;;;;;;;;;;;;;;;;;10415234;28;20098;-81
2022/02/12 11:17:44;;;;;;;9.65;4.47;;;;;;;;;;10414052;28;19913;-81
2022/02/12 11:22:47;;;;;;;7.68;2.30;;;;;;;;;;10417381;28;20153;-83
2022/02/12 11:28:03;;;;;;;6.80;2.55;;;;;;;;;;10418995;28;20475;-81
2022/02/12 11:33:20;;;;;;;6.10;2.33;;;;;;;;;;10419772;28;20033;-81
2022/02/12 11:38:38;;;;;;;6.07;2.30;;;;;;;;;;10417340;28;20049;-80
2022/02/12 11:43:46;;;;;;;4.38;1.80;;;;;;;;;;10417719;28;20522;-82
2022/02/12 11:48:48;;;;;;;4.03;1.80;;;;;;;;;;10403488;28;20068;-82
2022/02/12 11:53:54;;;;;;;4.90;2.00;;;;;;;;;;10418045;28;20125;-82
2022/02/12 11:58:55;;;;;;;4.40;2.13;;;;;;;;;;10416869;28;20403;-81
2022/02/12 12:03:56;;;;;;;;;;;;;;;;;;10417590;28;20091;-81
2022/02/12 12:09:06;;;;;;;5.55;2.25;;;;;;;;;;10418951;28;19915;-82
2022/02/12 12:14:22;;;;;;;4.85;1.77;;;;;;;;;;10417430;28;20037;-83
2022/02/12 12:19:30;;;;;;;6.88;2.20;;;;;;;;;;10425023;28;20033;-81
2022/02/12 12:24:31;;;;;;;4.45;2.13;;;;;;;;;;10422974;28;20483;-83
2022/02/12 12:35:06;;;;;;;6.67;1.77;;;;;;;;;;10431951;28;20045;-83
2022/02/12 12:40:07;;;;;;;7.10;2.40;;;;;;;;;;10430500;28;20073;-81
2022/02/12 12:45:14;;;;;;;5.43;2.17;;;;;;;;;;10431133;28;20506;-83
2022/02/12 12:50:48;;;;;;;5.30;1.70;;;;;;;;;;10418638;28;20349;-85
2022/02/12 12:56:13;;;;;;;9.18;2.47;;;;;;;;;;10452837;28;20114;-86
2022/02/12 13:02:02;;;;;;;6.05;1.98;;;;;;;;;;10385750;28;20404;-85
2022/02/12 13:13:29;;;;;;;6.22;1.95;;;;;;;;;;10431834;28;20048;-86
2022/02/12 13:53:39;;;;;;;7.22;3.70;;;;;;;;;;10390146;28;20053;-84
2022/02/12 14:05:05;;;;;;;6.38;1.83;;;;;;;;;;10392356;28;20042;-87
2022/02/12 14:11:01;;;;;;;5.90;1.80;;;;;;;;;;10226608;29;20067;-84
2022/02/12 14:28:21;;;;;;;5.28;2.20;;;;;;;;;;10220377;29;20076;-86
2022/02/12 14:39:29;;;;;;;4.78;1.98;;;;;;;;;;10315915;22;20419;-86
2022/02/12 14:44:56;;;;;;;4.45;1.67;;;;;;;;;;10445693;28;20513;-86
2022/02/12 14:56:02;;;;;;;5.63;2.45;;;;;;;;;;10454282;28;20040;-86
2022/02/12 15:06:53;;;;;;;5.07;2.00;;;;;;;;;;10471556;28;20068;-86
2022/02/12 15:23:18;;;;;;;;;;;;;;;;;;10461459;28;20028;-85
2022/02/12 15:39:21;;;;;;;4.53;1.70;;;;;;;;;;10421494;26;19956;-85
2022/02/12 15:44:30;;;;;;;5.90;1.70;;;;;;;;;;10410383;28;20072;-85
2022/02/12 15:49:49;;;;;;;5.90;1.58;;;;;;;;;;10425118;28;20112;-85
2022/02/12 16:17:55;;;;;;;2.72;1.30;;;;;;;;;;10311054;28;20030;-84
2022/02/12 16:23:40;;;;;;;3.58;1.45;;;;;;;;;;10303087;28;20042;-85
2022/02/12 16:29:02;;;;;;;3.65;1.50;;;;;;;;;;10300807;28;20482;-85
2022/02/12 16:46:37;;;;;;;3.08;1.30;;;;;;;;;;10301446;28;20030;-85
2022/02/12 19:36:13;;;;;;;4.05;2.38;;;;;;;;;;10140330;29;20033;-85
2022/02/12 19:52:52;;;;;;;;;;;;;;;;;;10312747;28;20033;-85
2022/02/12 20:03:49;;;;;;;4.63;2.33;;;;;;;;;;10314427;28;20474;-84
2022/02/12 20:25:53;;;;;;;;;;;;;;;;;;10306451;28;20127;-84
2022/02/12 20:37:07;;;;;;;4.72;2.85;;;;;;;;;;10229042;29;20040;-84
2022/02/12 21:05:00;;;;;;;5.00;2.70;;;;;;;;;;10234769;29;20052;-85
2022/02/12 21:10:49;;;;;;;5.90;3.58;;;;;;;;;;10214112;29;20024;-84
2022/02/12 21:33:33;;;;;;;7.07;3.25;;;;;;;;;;10146811;29;20035;-84
2022/02/12 21:44:41;;;;;;;4.38;2.17;;;;;;;;;;10068969;29;20029;-84
2022/02/12 21:50:07;;;;;;;2.88;2.00;;;;;;;;;;10048672;29;20046;-84
2022/02/12 22:06:56;;;;;;;3.63;1.85;;;;;;;;;;10082132;29;20046;-84
2022/02/12 22:23:59;;;;;;;3.22;2.20;;;;;;;;;;9937292;29;20050;-85
2022/02/12 22:34:59;;;;;;;3.75;2.20;;;;;;;;;;9992909;29;20398;-85
2022/02/12 22:57:18;;;;;;;3.72;2.50;;;;;;;;;;10163639;28;20039;-83
2022/02/12 23:20:02;;;;;;;4.57;2.92;;;;;;;;;;10316348;28;20030;-85
2022/02/12 23:25:36;;;;;;;3.60;2.17;;;;;;;;;;10195769;29;20063;-86
2022/02/12 23:53:15;;;;;;;2.38;1.60;;;;;;;;;;10192295;29;20047;-86
2022/02/12 23:58:37;;;;;;;4.07;2.55;;;;;;;;;;10192148;29;20131;-86
